Ronvikbuen — LM4307 — position and weather

sailwx.info

Track history (hours):
 
Tides and Currents Weather Stations Pressure Air Temp Water Temp Dewpoint Dewpoint Depression Visibility Wind Speed Wind Dir Waves Ship Positions

Ronvikbuen

Last reported at 2018-Mar-21 10:26 UTC. Time now 2018-Apr-22 03:03 UTC.
Position N 66°59' E 013°36'.
Warning: this ship's position is 31 days out of date.

Length 14 m.

Type: Fishing. MMSI: 257253620.

Date/timePositionNaut miles runAvg speedWind from/ knotsBaromVisibWave heightAir tempDewpointWater temp
2018-Mar-21 10:26N 66°59' E 013°36'12 7.4
2018-Mar-21 08:51N 67°07' E 013°59'3 7.4
2018-Mar-21 08:30N 67°09' E 014°02'4 7.7
2018-Mar-21 08:01N 67°12' E 014°07'4 7.3
2018-Mar-21 07:30N 67°15' E 014°14'4 7.2
2018-Mar-21 07:00N 67°17' E 014°21'0 0.7
2018-Mar-21 06:28N 67°17' E 014°22'0 0.0
2018-Mar-21 05:58N 67°17' E 014°22'0 0.0
2018-Mar-21 05:28N 67°17' E 014°22'0 0.0
2018-Mar-21 04:58N 67°17' E 014°22'0 0.0
2018-Mar-21 04:28N 67°17' E 014°22'0 0.0
2018-Mar-21 03:58N 67°17' E 014°22'0 0.0
2018-Mar-21 03:28N 67°17' E 014°22'0 0.0
2018-Mar-21 02:58N 67°17' E 014°22'0 0.0
2018-Mar-21 02:28N 67°17' E 014°22'0 0.0
2018-Mar-21 01:58N 67°17' E 014°22'0 0.0
2018-Mar-21 01:28N 67°17' E 014°22'0 0.0
2018-Mar-21 00:58N 67°17' E 014°22'0 0.0
2018-Mar-21 00:28N 67°17' E 014°22'0 0.0
2018-Mar-20 23:58N 67°17' E 014°22'0 0.0
2018-Mar-20 23:28N 67°17' E 014°22'0 0.0
2018-Mar-20 22:58N 67°17' E 014°22'0 0.0
2018-Mar-20 22:28N 67°17' E 014°22'0 0.0
2018-Mar-20 21:58N 67°17' E 014°22'0 0.0
2018-Mar-20 21:28N 67°17' E 014°22'0 0.0
2018-Mar-20 20:58N 67°17' E 014°22'0 0.0
2018-Mar-20 20:28N 67°17' E 014°22'0 0.0
2018-Mar-20 19:58N 67°17' E 014°22'0 0.0
2018-Mar-20 19:28N 67°17' E 014°22'0 0.0
2018-Mar-20 18:58N 67°17' E 014°22'0 0.0
2018-Mar-20 18:28N 67°17' E 014°22'0 0.0
2018-Mar-20 17:58N 67°17' E 014°22'0 0.0
2018-Mar-20 17:28N 67°17' E 014°22'0 0.0
2018-Mar-20 16:58N 67°17' E 014°22'0 0.0
2018-Mar-20 16:28N 67°17' E 014°22'0 0.0
2018-Mar-20 15:58N 67°17' E 014°22'0 0.0
2018-Mar-20 15:28N 67°17' E 014°22'0 0.0
2018-Mar-20 14:58N 67°17' E 014°22'0 0.0
2018-Mar-20 14:28N 67°17' E 014°22'0 0.0
2018-Mar-20 13:58N 67°17' E 014°22'0 0.0
2018-Mar-20 13:28N 67°17' E 014°22'0 0.0
2018-Mar-20 12:58N 67°17' E 014°22'0 0.0
2018-Mar-20 12:28N 67°17' E 014°22'0 0.0
2018-Mar-20 11:58N 67°17' E 014°22'0 0.0
2018-Mar-20 11:28N 67°17' E 014°22'0 0.0
2018-Mar-20 10:58N 67°17' E 014°22'0 0.0
2018-Mar-20 10:28N 67°17' E 014°22'0 0.0
2018-Mar-20 09:58N 67°17' E 014°22'0 0.0
2018-Mar-20 09:28N 67°17' E 014°22'0 0.0
2018-Mar-20 08:58N 67°17' E 014°22'0 0.0
2018-Mar-20 08:28N 67°17' E 014°22'0 0.0
2018-Mar-20 07:58N 67°17' E 014°22'0 0.0
2018-Mar-20 07:28N 67°17' E 014°22'0 0.0
2018-Mar-20 06:58N 67°17' E 014°22'0 0.0
2018-Mar-20 06:28N 67°17' E 014°22'0 0.0
2018-Mar-20 05:58N 67°17' E 014°22'0 0.0
2018-Mar-20 05:28N 67°17' E 014°22'0 0.0
2018-Mar-20 04:58N 67°17' E 014°22'0 0.0
2018-Mar-20 04:28N 67°17' E 014°22'0 0.0
2018-Mar-20 03:58N 67°17' E 014°22'0 0.0
2018-Mar-20 03:28N 67°17' E 014°22'0 0.0
2018-Mar-20 02:58N 67°17' E 014°22'0 0.0
2018-Mar-20 02:28N 67°17' E 014°22'0 0.0
2018-Mar-20 01:58N 67°17' E 014°22'0 0.0
2018-Mar-20 01:28N 67°17' E 014°22'0 0.0
2018-Mar-20 00:58N 67°17' E 014°22'0 0.0
2018-Mar-20 00:28N 67°17' E 014°22'0 0.0
2018-Mar-19 23:58N 67°17' E 014°22'0 0.0
2018-Mar-19 23:28N 67°17' E 014°22'0 0.0
2018-Mar-19 22:58N 67°17' E 014°22'0 0.0
2018-Mar-19 22:28N 67°17' E 014°22'0 0.0
2018-Mar-19 21:58N 67°17' E 014°22'0 0.0
2018-Mar-19 21:28N 67°17' E 014°22'0 0.0
2018-Mar-19 20:58N 67°17' E 014°22'0 0.0
2018-Mar-19 20:28N 67°17' E 014°22'0 0.0
2018-Mar-19 19:58N 67°17' E 014°22'0 0.0
2018-Mar-19 19:28N 67°17' E 014°22'0 0.0
2018-Mar-19 18:58N 67°17' E 014°22'0 0.0
2018-Mar-19 18:28N 67°17' E 014°22'0 0.0
2018-Mar-19 17:58N 67°17' E 014°22'0 0.0
2018-Mar-19 17:28N 67°17' E 014°22'0 0.0
2018-Mar-19 16:58N 67°17' E 014°22'0 0.0
2018-Mar-19 16:28N 67°17' E 014°22'0 0.0
2018-Mar-19 15:58N 67°17' E 014°22'0 0.0
2018-Mar-19 15:28N 67°17' E 014°22'0 0.0
2018-Mar-19 14:58N 67°17' E 014°22'0 0.0
2018-Mar-19 14:28N 67°17' E 014°22'0 0.0
2018-Mar-19 13:58N 67°17' E 014°22'0 0.0
2018-Mar-19 13:28N 67°17' E 014°22'0 0.0
2018-Mar-19 12:58N 67°17' E 014°22'0 0.0
2018-Mar-19 12:28N 67°17' E 014°22'0 0.0
2018-Mar-19 11:58N 67°17' E 014°22'0 0.0
2018-Mar-19 11:28N 67°17' E 014°22'0 0.0
2018-Mar-19 10:58N 67°17' E 014°22'0 0.0
2018-Mar-19 10:28N 67°17' E 014°22'0 0.0
2018-Mar-19 09:58N 67°17' E 014°22'0 0.0
2018-Mar-19 09:28N 67°17' E 014°22'0 0.0
2018-Mar-19 08:58N 67°17' E 014°22'0 0.0
2018-Mar-19 08:28N 67°17' E 014°22'0 0.0
2018-Mar-19 07:58N 67°17' E 014°22'0 0.0
2018-Mar-19 07:28N 67°17' E 014°22'0 0.0
2018-Mar-19 06:58N 67°17' E 014°22'0 0.0
2018-Mar-19 06:28N 67°17' E 014°22'0 0.0
2018-Mar-19 05:58N 67°17' E 014°22'0 0.0
2018-Mar-19 05:28N 67°17' E 014°22'0 0.0
2018-Mar-19 04:58N 67°17' E 014°22'0 0.0
2018-Mar-19 04:28N 67°17' E 014°22'0 0.0
2018-Mar-19 03:58N 67°17' E 014°22'0 0.0
2018-Mar-19 03:28N 67°17' E 014°22'0 0.0
2018-Mar-19 02:58N 67°17' E 014°22'0 0.0
2018-Mar-19 02:28N 67°17' E 014°22'0 0.0
2018-Mar-19 01:58N 67°17' E 014°22'0 0.0
2018-Mar-19 01:28N 67°17' E 014°22'0 0.0
2018-Mar-19 00:58N 67°17' E 014°22'0 0.0
2018-Mar-19 00:28N 67°17' E 014°22'0 0.0
2018-Mar-18 23:58N 67°17' E 014°22'0 0.0
2018-Mar-18 23:28N 67°17' E 014°22'0 0.0
2018-Mar-18 22:58N 67°17' E 014°22'0 0.0
2018-Mar-18 22:28N 67°17' E 014°22'0 0.0
2018-Mar-18 21:58N 67°17' E 014°22'0 0.0
2018-Mar-18 21:28N 67°17' E 014°22'0 0.0
2018-Mar-18 20:58N 67°17' E 014°22'0 0.0
2018-Mar-18 20:28N 67°17' E 014°22'0 0.0
2018-Mar-18 19:58N 67°17' E 014°22'0 0.0
2018-Mar-18 19:28N 67°17' E 014°22'0 0.0
2018-Mar-18 18:58N 67°17' E 014°22'0 0.0
2018-Mar-18 18:28N 67°17' E 014°22'0 0.0
2018-Mar-18 17:58N 67°17' E 014°22'0 0.0
2018-Mar-18 17:28N 67°17' E 014°22'0 0.0
2018-Mar-18 16:58N 67°17' E 014°22'0 0.0
2018-Mar-18 16:28N 67°17' E 014°22'0 0.0
2018-Mar-18 15:58N 67°17' E 014°22'0 0.0
2018-Mar-18 15:28N 67°17' E 014°22'0 0.0
2018-Mar-18 14:58N 67°17' E 014°22'0 0.0
2018-Mar-18 14:28N 67°17' E 014°22'0 0.0
2018-Mar-18 13:58N 67°17' E 014°22'0 0.0
2018-Mar-18 13:28N 67°17' E 014°22'0 0.0
2018-Mar-18 12:58N 67°17' E 014°22'0 0.0
2018-Mar-18 12:22N 67°17' E 014°22'0 0.0
2018-Mar-18 11:58N 67°17' E 014°22'0 0.0
2018-Mar-18 11:28N 67°17' E 014°22'0 0.0
2018-Mar-18 10:58N 67°17' E 014°22'0 0.0
2018-Mar-18 10:28N 67°17' E 014°22'0 0.0
2018-Mar-18 09:58N 67°17' E 014°22'0 0.0
2018-Mar-18 09:28N 67°17' E 014°22'0 0.0
2018-Mar-18 08:58N 67°17' E 014°22'0 0.0
2018-Mar-18 08:28N 67°17' E 014°22'0 0.0
2018-Mar-18 07:58N 67°17' E 014°22'0 0.0
2018-Mar-18 07:28N 67°17' E 014°22'0 0.0
2018-Mar-18 06:58N 67°17' E 014°22'0 0.0
2018-Mar-18 06:28N 67°17' E 014°22'0 0.0
2018-Mar-18 05:58N 67°17' E 014°22'0 0.0
2018-Mar-18 05:28N 67°17' E 014°22'0 0.0
2018-Mar-18 04:58N 67°17' E 014°22'0 0.0
2018-Mar-18 04:28N 67°17' E 014°22'0 0.0
2018-Mar-18 03:58N 67°17' E 014°22'0 0.0
2018-Mar-18 03:28N 67°17' E 014°22'0 0.0
2018-Mar-18 02:58N 67°17' E 014°22'0 0.0
2018-Mar-18 02:28N 67°17' E 014°22'0 0.0
2018-Mar-18 01:58N 67°17' E 014°22'0 0.0
2018-Mar-18 01:28N 67°17' E 014°22'0 0.0
2018-Mar-18 00:58N 67°17' E 014°22'0 0.0
2018-Mar-18 00:28N 67°17' E 014°22'0 0.0
2018-Mar-17 23:58N 67°17' E 014°22'0 0.0
2018-Mar-17 23:28N 67°17' E 014°22'0 0.0
2018-Mar-17 22:58N 67°17' E 014°22'0 0.0
2018-Mar-17 22:28N 67°17' E 014°22'0 0.0
2018-Mar-17 21:58N 67°17' E 014°22'0 0.0
2018-Mar-17 21:28N 67°17' E 014°22'0 0.0
2018-Mar-17 20:58N 67°17' E 014°22'0 0.0
2018-Mar-17 20:28N 67°17' E 014°22'0 0.0
2018-Mar-17 19:58N 67°17' E 014°22'0 0.0
2018-Mar-17 19:28N 67°17' E 014°22'0 0.0
2018-Mar-17 18:58N 67°17' E 014°22'0 0.0
2018-Mar-17 18:28N 67°17' E 014°22'0 0.0
2018-Mar-17 17:58N 67°17' E 014°22'1 3.1
2018-Mar-17 17:30N 67°18' E 014°22'4 8.0
2018-Mar-17 17:00N 67°21' E 014°14'  
Track history (hours):
 
Tides and Currents Weather Stations Pressure Air Temp Water Temp Dewpoint Dewpoint Depression Visibility Wind Speed Wind Dir Waves Ship Positions

Ronvikbuen

Last reported at 2018-Mar-21 10:26 UTC. Time now 2018-Apr-22 03:03 UTC.
Position N 66°59' E 013°36'.
Warning: this ship's position is 31 days out of date.

Length 14 m.

Type: Fishing. MMSI: 257253620.

Date/timePositionNaut miles runAvg speedWind from/ knotsBaromVisibWave heightAir tempDewpointWater temp
2018-Mar-21 10:26N 66°59' E 013°36'12 7.4
2018-Mar-21 08:51N 67°07' E 013°59'3 7.4
2018-Mar-21 08:30N 67°09' E 014°02'4 7.7
2018-Mar-21 08:01N 67°12' E 014°07'4 7.3
2018-Mar-21 07:30N 67°15' E 014°14'4 7.2
2018-Mar-21 07:00N 67°17' E 014°21'0 0.7
2018-Mar-21 06:28N 67°17' E 014°22'0 0.0
2018-Mar-21 05:58N 67°17' E 014°22'0 0.0
2018-Mar-21 05:28N 67°17' E 014°22'0 0.0
2018-Mar-21 04:58N 67°17' E 014°22'0 0.0
2018-Mar-21 04:28N 67°17' E 014°22'0 0.0
2018-Mar-21 03:58N 67°17' E 014°22'0 0.0
2018-Mar-21 03:28N 67°17' E 014°22'0 0.0
2018-Mar-21 02:58N 67°17' E 014°22'0 0.0
2018-Mar-21 02:28N 67°17' E 014°22'0 0.0
2018-Mar-21 01:58N 67°17' E 014°22'0 0.0
2018-Mar-21 01:28N 67°17' E 014°22'0 0.0
2018-Mar-21 00:58N 67°17' E 014°22'0 0.0
2018-Mar-21 00:28N 67°17' E 014°22'0 0.0
2018-Mar-20 23:58N 67°17' E 014°22'0 0.0
2018-Mar-20 23:28N 67°17' E 014°22'0 0.0
2018-Mar-20 22:58N 67°17' E 014°22'0 0.0
2018-Mar-20 22:28N 67°17' E 014°22'0 0.0
2018-Mar-20 21:58N 67°17' E 014°22'0 0.0
2018-Mar-20 21:28N 67°17' E 014°22'0 0.0
2018-Mar-20 20:58N 67°17' E 014°22'0 0.0
2018-Mar-20 20:28N 67°17' E 014°22'0 0.0
2018-Mar-20 19:58N 67°17' E 014°22'0 0.0
2018-Mar-20 19:28N 67°17' E 014°22'0 0.0
2018-Mar-20 18:58N 67°17' E 014°22'0 0.0
2018-Mar-20 18:28N 67°17' E 014°22'0 0.0
2018-Mar-20 17:58N 67°17' E 014°22'0 0.0
2018-Mar-20 17:28N 67°17' E 014°22'0 0.0
2018-Mar-20 16:58N 67°17' E 014°22'0 0.0
2018-Mar-20 16:28N 67°17' E 014°22'0 0.0
2018-Mar-20 15:58N 67°17' E 014°22'0 0.0
2018-Mar-20 15:28N 67°17' E 014°22'0 0.0
2018-Mar-20 14:58N 67°17' E 014°22'0 0.0
2018-Mar-20 14:28N 67°17' E 014°22'0 0.0
2018-Mar-20 13:58N 67°17' E 014°22'0 0.0
2018-Mar-20 13:28N 67°17' E 014°22'0 0.0
2018-Mar-20 12:58N 67°17' E 014°22'0 0.0
2018-Mar-20 12:28N 67°17' E 014°22'0 0.0
2018-Mar-20 11:58N 67°17' E 014°22'0 0.0
2018-Mar-20 11:28N 67°17' E 014°22'0 0.0
2018-Mar-20 10:58N 67°17' E 014°22'0 0.0
2018-Mar-20 10:28N 67°17' E 014°22'0 0.0
2018-Mar-20 09:58N 67°17' E 014°22'0 0.0
2018-Mar-20 09:28N 67°17' E 014°22'0 0.0
2018-Mar-20 08:58N 67°17' E 014°22'0 0.0
2018-Mar-20 08:28N 67°17' E 014°22'0 0.0
2018-Mar-20 07:58N 67°17' E 014°22'0 0.0
2018-Mar-20 07:28N 67°17' E 014°22'0 0.0
2018-Mar-20 06:58N 67°17' E 014°22'0 0.0
2018-Mar-20 06:28N 67°17' E 014°22'0 0.0
2018-Mar-20 05:58N 67°17' E 014°22'0 0.0
2018-Mar-20 05:28N 67°17' E 014°22'0 0.0
2018-Mar-20 04:58N 67°17' E 014°22'0 0.0
2018-Mar-20 04:28N 67°17' E 014°22'0 0.0
2018-Mar-20 03:58N 67°17' E 014°22'0 0.0
2018-Mar-20 03:28N 67°17' E 014°22'0 0.0
2018-Mar-20 02:58N 67°17' E 014°22'0 0.0
2018-Mar-20 02:28N 67°17' E 014°22'0 0.0
2018-Mar-20 01:58N 67°17' E 014°22'0 0.0
2018-Mar-20 01:28N 67°17' E 014°22'0 0.0
2018-Mar-20 00:58N 67°17' E 014°22'0 0.0
2018-Mar-20 00:28N 67°17' E 014°22'0 0.0
2018-Mar-19 23:58N 67°17' E 014°22'0 0.0
2018-Mar-19 23:28N 67°17' E 014°22'0 0.0
2018-Mar-19 22:58N 67°17' E 014°22'0 0.0
2018-Mar-19 22:28N 67°17' E 014°22'0 0.0
2018-Mar-19 21:58N 67°17' E 014°22'0 0.0
2018-Mar-19 21:28N 67°17' E 014°22'0 0.0
2018-Mar-19 20:58N 67°17' E 014°22'0 0.0
2018-Mar-19 20:28N 67°17' E 014°22'0 0.0
2018-Mar-19 19:58N 67°17' E 014°22'0 0.0
2018-Mar-19 19:28N 67°17' E 014°22'0 0.0
2018-Mar-19 18:58N 67°17' E 014°22'0 0.0
2018-Mar-19 18:28N 67°17' E 014°22'0 0.0
2018-Mar-19 17:58N 67°17' E 014°22'0 0.0
2018-Mar-19 17:28N 67°17' E 014°22'0 0.0
2018-Mar-19 16:58N 67°17' E 014°22'0 0.0
2018-Mar-19 16:28N 67°17' E 014°22'0 0.0
2018-Mar-19 15:58N 67°17' E 014°22'0 0.0
2018-Mar-19 15:28N 67°17' E 014°22'0 0.0
2018-Mar-19 14:58N 67°17' E 014°22'0 0.0
2018-Mar-19 14:28N 67°17' E 014°22'0 0.0
2018-Mar-19 13:58N 67°17' E 014°22'0 0.0
2018-Mar-19 13:28N 67°17' E 014°22'0 0.0
2018-Mar-19 12:58N 67°17' E 014°22'0 0.0
2018-Mar-19 12:28N 67°17' E 014°22'0 0.0
2018-Mar-19 11:58N 67°17' E 014°22'0 0.0
2018-Mar-19 11:28N 67°17' E 014°22'0 0.0
2018-Mar-19 10:58N 67°17' E 014°22'0 0.0
2018-Mar-19 10:28N 67°17' E 014°22'0 0.0
2018-Mar-19 09:58N 67°17' E 014°22'0 0.0
2018-Mar-19 09:28N 67°17' E 014°22'0 0.0
2018-Mar-19 08:58N 67°17' E 014°22'0 0.0
2018-Mar-19 08:28N 67°17' E 014°22'0 0.0
2018-Mar-19 07:58N 67°17' E 014°22'0 0.0
2018-Mar-19 07:28N 67°17' E 014°22'0 0.0
2018-Mar-19 06:58N 67°17' E 014°22'0 0.0
2018-Mar-19 06:28N 67°17' E 014°22'0 0.0
2018-Mar-19 05:58N 67°17' E 014°22'0 0.0
2018-Mar-19 05:28N 67°17' E 014°22'0 0.0
2018-Mar-19 04:58N 67°17' E 014°22'0 0.0
2018-Mar-19 04:28N 67°17' E 014°22'0 0.0
2018-Mar-19 03:58N 67°17' E 014°22'0 0.0
2018-Mar-19 03:28N 67°17' E 014°22'0 0.0
2018-Mar-19 02:58N 67°17' E 014°22'0 0.0
2018-Mar-19 02:28N 67°17' E 014°22'0 0.0
2018-Mar-19 01:58N 67°17' E 014°22'0 0.0
2018-Mar-19 01:28N 67°17' E 014°22'0 0.0
2018-Mar-19 00:58N 67°17' E 014°22'0 0.0
2018-Mar-19 00:28N 67°17' E 014°22'0 0.0
2018-Mar-18 23:58N 67°17' E 014°22'0 0.0
2018-Mar-18 23:28N 67°17' E 014°22'0 0.0
2018-Mar-18 22:58N 67°17' E 014°22'0 0.0
2018-Mar-18 22:28N 67°17' E 014°22'0 0.0
2018-Mar-18 21:58N 67°17' E 014°22'0 0.0
2018-Mar-18 21:28N 67°17' E 014°22'0 0.0
2018-Mar-18 20:58N 67°17' E 014°22'0 0.0
2018-Mar-18 20:28N 67°17' E 014°22'0 0.0
2018-Mar-18 19:58N 67°17' E 014°22'0 0.0
2018-Mar-18 19:28N 67°17' E 014°22'0 0.0
2018-Mar-18 18:58N 67°17' E 014°22'0 0.0
2018-Mar-18 18:28N 67°17' E 014°22'0 0.0
2018-Mar-18 17:58N 67°17' E 014°22'0 0.0
2018-Mar-18 17:28N 67°17' E 014°22'0 0.0
2018-Mar-18 16:58N 67°17' E 014°22'0 0.0
2018-Mar-18 16:28N 67°17' E 014°22'0 0.0
2018-Mar-18 15:58N 67°17' E 014°22'0 0.0
2018-Mar-18 15:28N 67°17' E 014°22'0 0.0
2018-Mar-18 14:58N 67°17' E 014°22'0 0.0
2018-Mar-18 14:28N 67°17' E 014°22'0 0.0
2018-Mar-18 13:58N 67°17' E 014°22'0 0.0
2018-Mar-18 13:28N 67°17' E 014°22'0 0.0
2018-Mar-18 12:58N 67°17' E 014°22'0 0.0
2018-Mar-18 12:22N 67°17' E 014°22'0 0.0
2018-Mar-18 11:58N 67°17' E 014°22'0 0.0
2018-Mar-18 11:28N 67°17' E 014°22'0 0.0
2018-Mar-18 10:58N 67°17' E 014°22'0 0.0
2018-Mar-18 10:28N 67°17' E 014°22'0 0.0
2018-Mar-18 09:58N 67°17' E 014°22'0 0.0
2018-Mar-18 09:28N 67°17' E 014°22'0 0.0
2018-Mar-18 08:58N 67°17' E 014°22'0 0.0
2018-Mar-18 08:28N 67°17' E 014°22'0 0.0
2018-Mar-18 07:58N 67°17' E 014°22'0 0.0
2018-Mar-18 07:28N 67°17' E 014°22'0 0.0
2018-Mar-18 06:58N 67°17' E 014°22'0 0.0
2018-Mar-18 06:28N 67°17' E 014°22'0 0.0
2018-Mar-18 05:58N 67°17' E 014°22'0 0.0
2018-Mar-18 05:28N 67°17' E 014°22'0 0.0
2018-Mar-18 04:58N 67°17' E 014°22'0 0.0
2018-Mar-18 04:28N 67°17' E 014°22'0 0.0
2018-Mar-18 03:58N 67°17' E 014°22'0 0.0
2018-Mar-18 03:28N 67°17' E 014°22'0 0.0
2018-Mar-18 02:58N 67°17' E 014°22'0 0.0
2018-Mar-18 02:28N 67°17' E 014°22'0 0.0
2018-Mar-18 01:58N 67°17' E 014°22'0 0.0
2018-Mar-18 01:28N 67°17' E 014°22'0 0.0
2018-Mar-18 00:58N 67°17' E 014°22'0 0.0
2018-Mar-18 00:28N 67°17' E 014°22'0 0.0
2018-Mar-17 23:58N 67°17' E 014°22'0 0.0
2018-Mar-17 23:28N 67°17' E 014°22'0 0.0
2018-Mar-17 22:58N 67°17' E 014°22'0 0.0
2018-Mar-17 22:28N 67°17' E 014°22'0 0.0
2018-Mar-17 21:58N 67°17' E 014°22'0 0.0
2018-Mar-17 21:28N 67°17' E 014°22'0 0.0
2018-Mar-17 20:58N 67°17' E 014°22'0 0.0
2018-Mar-17 20:28N 67°17' E 014°22'0 0.0
2018-Mar-17 19:58N 67°17' E 014°22'0 0.0
2018-Mar-17 19:28N 67°17' E 014°22'0 0.0
2018-Mar-17 18:58N 67°17' E 014°22'0 0.0
2018-Mar-17 18:28N 67°17' E 014°22'0 0.0
2018-Mar-17 17:58N 67°17' E 014°22'1 3.1
2018-Mar-17 17:30N 67°18' E 014°22'4 8.0
2018-Mar-17 17:00N 67°21' E 014°14'  

Dump ship's entire track history